createdAt,value
2018-12-18T00:00:10.464Z,1.14
2018-12-18T00:02:41.221Z,1.30
2018-12-18T00:05:18.194Z,1.27
2018-12-18T00:07:48.963Z,1.21
2018-12-18T00:10:19.720Z,1.19
2018-12-18T00:12:50.481Z,1.21
2018-12-18T00:15:21.259Z,0.85
2018-12-18T00:17:52.095Z,1.28
2018-12-18T00:20:22.867Z,1.33
2018-12-18T00:22:53.629Z,1.36
2018-12-18T00:25:24.400Z,1.41
2018-12-18T00:27:55.155Z,1.41
2018-12-18T00:30:25.929Z,1.46
2018-12-18T00:32:56.750Z,1.40
2018-12-18T00:35:27.986Z,1.44
2018-12-18T00:37:58.743Z,1.44
2018-12-18T00:40:29.534Z,1.52
2018-12-18T00:43:00.293Z,1.50
2018-12-18T00:45:31.291Z,1.48
2018-12-18T00:48:02.030Z,1.48
2018-12-18T00:50:32.902Z,1.43
2018-12-18T00:53:03.657Z,1.52
2018-12-18T00:55:34.532Z,1.40
2018-12-18T00:58:05.268Z,1.42
2018-12-18T01:00:36.140Z,1.48
2018-12-18T01:03:06.881Z,1.37
2018-12-18T01:05:37.651Z,1.43
2018-12-18T01:08:08.414Z,1.54
2018-12-18T01:10:39.589Z,1.00
2018-12-18T01:13:10.494Z,1.38
2018-12-18T01:15:41.241Z,1.35
2018-12-18T01:18:11.981Z,1.29
2018-12-18T01:20:42.738Z,1.33
2018-12-18T01:23:13.450Z,1.36
2018-12-18T01:25:44.201Z,1.35
2018-12-18T01:28:14.957Z,1.40
2018-12-18T01:30:45.835Z,1.41
2018-12-18T01:33:16.581Z,1.29
2018-12-18T01:35:47.317Z,1.39
2018-12-18T01:38:18.053Z,1.35
2018-12-18T01:40:48.833Z,1.29
2018-12-18T01:43:19.595Z,1.22
2018-12-18T01:45:50.348Z,1.30
2018-12-18T01:48:21.074Z,0.94
2018-12-18T01:50:51.846Z,1.38
2018-12-18T01:53:22.560Z,1.39
2018-12-18T01:55:53.524Z,1.33
2018-12-18T01:58:31.180Z,1.44
2018-12-18T02:01:01.933Z,1.43
2018-12-18T02:03:32.683Z,1.43
2018-12-18T02:06:03.590Z,1.37
2018-12-18T02:08:34.320Z,1.33
2018-12-18T02:11:05.092Z,1.28
2018-12-18T02:13:35.953Z,1.36
2018-12-18T02:16:08.733Z,1.44
2018-12-18T02:18:39.494Z,1.48
2018-12-18T02:21:10.361Z,1.48
2018-12-18T02:23:41.101Z,1.50
2018-12-18T02:26:11.833Z,1.49
2018-12-18T02:28:42.573Z,1.54
2018-12-18T02:31:13.441Z,1.53
2018-12-18T02:33:44.220Z,1.58
2018-12-18T02:36:15.028Z,1.56
2018-12-18T02:38:45.955Z,1.55
2018-12-18T02:41:16.730Z,1.48
2018-12-18T02:43:47.499Z,1.47
2018-12-18T02:46:18.374Z,1.48
2018-12-18T02:48:49.112Z,1.48
2018-12-18T02:51:19.875Z,1.48
2018-12-18T02:53:50.610Z,1.01
2018-12-18T02:56:21.367Z,1.43
2018-12-18T02:58:52.110Z,1.46
2018-12-18T03:01:22.869Z,1.47
2018-12-18T03:03:53.701Z,1.53
2018-12-18T03:06:24.581Z,1.59
2018-12-18T03:08:55.417Z,1.67
2018-12-18T03:11:26.191Z,1.67
2018-12-18T03:13:56.958Z,1.63
2018-12-18T03:16:27.804Z,1.60
2018-12-18T03:18:58.564Z,1.63
2018-12-18T03:21:29.309Z,1.63
2018-12-18T03:24:00.046Z,1.54
2018-12-18T03:26:30.823Z,1.46
2018-12-18T03:29:01.697Z,1.38
2018-12-18T03:31:33.670Z,1.36
2018-12-18T03:34:04.501Z,1.28
2018-12-18T03:36:35.265Z,1.36
2018-12-18T03:39:06.024Z,1.36
2018-12-18T03:41:36.793Z,1.36
2018-12-18T03:44:14.458Z,1.40
2018-12-18T03:46:45.229Z,1.43
2018-12-18T03:49:16.004Z,1.43
2018-12-18T03:51:46.766Z,1.39
2018-12-18T03:54:17.496Z,1.37
2018-12-18T03:56:48.266Z,1.46
2018-12-18T03:59:19.002Z,1.39
2018-12-18T04:01:49.749Z,1.42
2018-12-18T04:04:20.508Z,1.41
2018-12-18T04:06:51.289Z,1.42
2018-12-18T04:09:22.039Z,1.36
2018-12-18T04:11:58.953Z,1.37
2018-12-18T04:14:29.707Z,1.44
2018-12-18T04:17:00.461Z,1.53
2018-12-18T04:19:31.210Z,1.55
2018-12-18T04:22:02.063Z,1.48
2018-12-18T04:24:32.907Z,1.52
2018-12-18T04:27:03.643Z,1.49
2018-12-18T04:29:34.396Z,1.58
2018-12-18T04:32:05.157Z,1.48
2018-12-18T04:34:42.712Z,1.57
2018-12-18T04:37:08.733Z,1.55
2018-12-18T04:39:39.473Z,1.54
2018-12-18T04:42:10.205Z,1.57
2018-12-18T04:44:40.927Z,1.54
2018-12-18T04:47:11.773Z,1.58
2018-12-18T04:49:42.505Z,1.60
2018-12-18T04:52:20.317Z,1.60
2018-12-18T04:54:51.286Z,1.58
2018-12-18T04:57:22.056Z,1.55
2018-12-18T04:59:52.789Z,1.58
2018-12-18T05:02:23.553Z,1.49
2018-12-18T05:04:54.287Z,1.52
2018-12-18T05:07:25.134Z,1.58
2018-12-18T05:09:55.892Z,1.53
2018-12-18T05:12:26.645Z,1.53
2018-12-18T05:14:57.410Z,1.53
2018-12-18T05:17:28.156Z,1.54
2018-12-18T05:19:58.872Z,1.62
2018-12-18T05:22:29.660Z,1.49
2018-12-18T05:25:00.398Z,1.56
2018-12-18T05:27:31.183Z,1.55
2018-12-18T05:30:02.251Z,1.57
2018-12-18T05:32:33.036Z,1.56
2018-12-18T05:35:03.883Z,1.68
2018-12-18T05:37:34.662Z,1.66
2018-12-18T05:40:05.626Z,1.70
2018-12-18T05:42:36.660Z,1.52
2018-12-18T05:45:07.426Z,1.66
2018-12-18T05:47:38.175Z,1.67
2018-12-18T05:50:08.908Z,1.74
2018-12-18T05:52:39.652Z,1.69
2018-12-18T05:55:10.383Z,1.72
2018-12-18T05:57:41.144Z,1.72
2018-12-18T06:00:12.023Z,1.71
2018-12-18T06:02:42.801Z,1.73
2018-12-18T06:05:13.529Z,1.76
2018-12-18T06:07:44.306Z,0.85
2018-12-18T06:10:15.037Z,1.76
2018-12-18T06:12:46.100Z,1.72
2018-12-18T06:15:17.068Z,1.67
2018-12-18T06:17:47.829Z,1.77
2018-12-18T06:20:19.562Z,1.75
2018-12-18T06:22:50.327Z,1.74
2018-12-18T06:25:21.058Z,1.76
2018-12-18T06:27:51.937Z,1.68
2018-12-18T06:30:22.698Z,1.72
2018-12-18T06:32:53.452Z,1.72
2018-12-18T06:35:24.205Z,1.74
2018-12-18T06:37:54.978Z,1.59
2018-12-18T06:40:25.834Z,1.67
2018-12-18T06:42:56.603Z,1.70
2018-12-18T06:45:27.337Z,1.69
2018-12-18T06:47:58.078Z,1.71
2018-12-18T06:50:28.797Z,1.71
2018-12-18T06:52:59.672Z,1.80
2018-12-18T06:55:30.405Z,1.82
2018-12-18T06:58:01.193Z,1.83
2018-12-18T07:00:31.924Z,1.83
2018-12-18T07:03:02.765Z,1.83
2018-12-18T07:05:33.509Z,1.89
2018-12-18T07:08:04.285Z,1.88
2018-12-18T07:10:35.021Z,1.92
2018-12-18T07:13:05.791Z,1.90
2018-12-18T07:15:36.523Z,1.93
2018-12-18T07:18:07.288Z,2.01
2018-12-18T07:20:38.012Z,1.98
2018-12-18T07:23:08.762Z,2.02
2018-12-18T07:25:39.521Z,2.00
2018-12-18T07:28:10.299Z,2.01
2018-12-18T07:30:41.093Z,2.09
2018-12-18T07:33:11.868Z,2.09
2018-12-18T07:35:42.598Z,2.13
2018-12-18T07:38:13.646Z,2.04
2018-12-18T07:40:44.475Z,2.07
2018-12-18T07:43:15.216Z,2.13
2018-12-18T07:45:45.950Z,2.09
2018-12-18T07:48:16.733Z,2.16
2018-12-18T07:50:47.496Z,2.10
2018-12-18T07:53:18.257Z,2.13
2018-12-18T07:55:48.998Z,2.08
2018-12-18T07:58:19.796Z,2.08
2018-12-18T08:00:50.548Z,2.22
2018-12-18T08:03:21.519Z,2.21
2018-12-18T08:05:52.249Z,2.21
2018-12-18T08:08:23.057Z,2.26
2018-12-18T08:10:53.939Z,2.28
2018-12-18T08:13:24.816Z,2.41
2018-12-18T08:15:55.593Z,2.42
2018-12-18T08:18:26.507Z,2.44
2018-12-18T08:20:57.249Z,2.54
2018-12-18T08:23:28.012Z,2.46
2018-12-18T08:25:58.760Z,2.47
2018-12-18T08:28:29.548Z,2.34
2018-12-18T08:31:00.305Z,2.54
2018-12-18T08:33:31.218Z,2.63
2018-12-18T08:36:01.966Z,2.59
2018-12-18T08:38:32.718Z,2.69
2018-12-18T08:41:03.445Z,2.61
2018-12-18T08:43:34.243Z,2.68
2018-12-18T08:46:10.202Z,2.63
2018-12-18T08:48:37.754Z,2.73
2018-12-18T08:51:08.606Z,2.65
2018-12-18T08:53:39.378Z,2.67
2018-12-18T08:56:10.154Z,2.78
2018-12-18T08:58:40.918Z,2.73
2018-12-18T09:01:11.660Z,2.58
2018-12-18T09:03:43.154Z,2.63
2018-12-18T09:06:14.103Z,2.77
2018-12-18T09:08:44.873Z,2.89
2018-12-18T09:11:15.608Z,2.94
2018-12-18T09:13:46.408Z,2.69
2018-12-18T09:16:23.305Z,2.57
2018-12-18T09:18:54.049Z,2.37
2018-12-18T09:21:25.091Z,2.50
2018-12-18T09:23:55.892Z,2.67
2018-12-18T09:26:26.646Z,2.86
2018-12-18T09:28:57.427Z,2.80
2018-12-18T09:31:28.149Z,2.71
2018-12-18T09:33:58.913Z,2.77
2018-12-18T09:36:29.808Z,2.92
2018-12-18T09:39:06.835Z,3.00
2018-12-18T09:41:38.564Z,3.09
2018-12-18T09:44:11.338Z,3.27
2018-12-18T09:46:42.555Z,3.20
2018-12-18T09:49:13.450Z,3.31
2018-12-18T09:51:44.192Z,3.03
2018-12-18T09:54:14.961Z,3.00
2018-12-18T09:56:49.510Z,3.00
2018-12-18T09:59:20.302Z,3.04
2018-12-18T10:01:51.052Z,3.10
2018-12-18T10:04:21.801Z,3.10
2018-12-18T10:06:53.027Z,3.13
2018-12-18T10:09:23.816Z,3.20
2018-12-18T10:11:54.649Z,3.52
2018-12-18T10:14:25.583Z,3.66
2018-12-18T10:16:56.855Z,3.39
2018-12-18T10:19:27.651Z,3.79
2018-12-18T10:21:59.409Z,3.85
2018-12-18T10:24:30.178Z,3.84
2018-12-18T10:27:01.031Z,4.02
2018-12-18T10:29:31.817Z,4.14
2018-12-18T10:32:02.658Z,4.08
2018-12-18T10:34:33.513Z,4.05
2018-12-18T10:37:04.260Z,4.04
2018-12-18T10:39:35.026Z,3.94
2018-12-18T10:42:05.890Z,4.11
2018-12-18T10:44:36.699Z,4.06
2018-12-18T10:47:07.433Z,4.10
2018-12-18T10:49:38.217Z,3.74
2018-12-18T10:52:08.959Z,3.68
2018-12-18T10:54:39.789Z,3.60
2018-12-18T11:00:19.590Z,3.71
2018-12-18T11:02:50.388Z,3.78
2018-12-18T11:05:21.365Z,3.77
2018-12-18T11:07:52.092Z,3.67
2018-12-18T11:10:22.874Z,3.60
2018-12-18T11:12:59.686Z,3.65
2018-12-18T11:15:30.420Z,3.65
2018-12-18T11:18:01.257Z,3.80
2018-12-18T11:20:32.018Z,3.83
2018-12-18T11:23:02.793Z,3.83
2018-12-18T11:25:33.550Z,3.98
2018-12-18T11:28:04.417Z,3.70
2018-12-18T11:30:35.252Z,3.98
2018-12-18T11:33:05.989Z,4.18
2018-12-18T11:35:36.878Z,4.19
2018-12-18T11:38:07.617Z,4.27
2018-12-18T11:40:38.463Z,4.33
2018-12-18T11:43:09.201Z,4.12
2018-12-18T11:45:40.069Z,4.06
2018-12-18T11:48:10.972Z,3.92
2018-12-18T11:50:41.708Z,3.96
2018-12-18T11:53:12.439Z,3.86
2018-12-18T11:55:43.184Z,3.61
2018-12-18T11:58:13.950Z,3.81
2018-12-18T12:00:44.733Z,3.79
2018-12-18T12:03:15.482Z,3.69
2018-12-18T12:05:46.225Z,2.97
2018-12-18T12:08:16.956Z,3.51
2018-12-18T12:10:47.832Z,3.52
2018-12-18T12:13:18.587Z,3.73
2018-12-18T12:15:49.344Z,3.49
2018-12-18T12:18:20.066Z,3.53
2018-12-18T12:20:50.814Z,3.52
2018-12-18T12:23:21.593Z,3.33
2018-12-18T12:25:52.341Z,3.19
2018-12-18T12:28:23.072Z,3.23
2018-12-18T12:30:53.793Z,3.22
2018-12-18T12:33:24.625Z,3.26
2018-12-18T12:35:55.409Z,2.61
2018-12-18T12:38:26.153Z,3.21
2018-12-18T12:40:56.881Z,3.26
2018-12-18T12:43:27.629Z,3.31
2018-12-18T12:45:58.463Z,3.17
2018-12-18T12:48:31.217Z,3.28
2018-12-18T12:51:01.965Z,3.35
2018-12-18T12:53:32.723Z,3.20
2018-12-18T12:56:03.509Z,3.33
2018-12-18T12:58:34.252Z,3.16
2018-12-18T13:01:04.985Z,3.32
2018-12-18T13:03:35.711Z,3.38
2018-12-18T13:06:06.501Z,3.47
2018-12-18T13:08:37.247Z,3.24
2018-12-18T13:11:08.048Z,3.31
2018-12-18T13:13:38.822Z,3.17
2018-12-18T13:16:09.586Z,3.31
2018-12-18T13:18:40.321Z,3.42
2018-12-18T13:21:11.105Z,3.26
2018-12-18T13:23:41.823Z,3.34
2018-12-18T13:26:12.608Z,3.32
2018-12-18T13:28:43.357Z,3.22
2018-12-18T13:31:14.165Z,3.29
2018-12-18T13:33:44.916Z,3.06
2018-12-18T13:39:19.602Z,3.10
2018-12-18T13:41:50.576Z,3.11
2018-12-18T13:44:21.320Z,3.13
2018-12-18T13:46:52.053Z,3.08
2018-12-18T13:49:22.789Z,2.99
2018-12-18T13:51:53.588Z,2.95
2018-12-18T13:54:24.313Z,2.95
2018-12-18T13:56:55.061Z,3.03
2018-12-18T13:59:25.790Z,2.95
2018-12-18T14:01:56.639Z,2.84
2018-12-18T14:04:27.366Z,2.93
2018-12-18T14:06:58.168Z,2.90
2018-12-18T14:09:28.897Z,2.94
2018-12-18T14:11:59.669Z,2.93
2018-12-18T14:14:30.427Z,2.88
2018-12-18T14:17:01.297Z,2.82
2018-12-18T14:19:32.041Z,2.87
2018-12-18T14:22:02.794Z,2.83
2018-12-18T14:24:33.539Z,2.87
2018-12-18T14:27:04.329Z,2.79
2018-12-18T14:29:35.058Z,2.80
2018-12-18T14:32:05.813Z,2.52
2018-12-18T14:34:36.530Z,2.84
2018-12-18T14:37:07.313Z,2.87
2018-12-18T14:39:38.036Z,2.77
2018-12-18T14:42:08.794Z,2.80
2018-12-18T14:44:39.547Z,2.78
2018-12-18T14:47:10.308Z,2.78
2018-12-18T14:49:41.031Z,2.70
2018-12-18T14:52:11.791Z,2.72
2018-12-18T14:54:42.637Z,2.65
2018-12-18T14:57:13.442Z,2.63
2018-12-18T14:59:51.256Z,2.66
2018-12-18T15:02:21.994Z,2.69
2018-12-18T15:04:52.758Z,2.60
2018-12-18T15:07:23.494Z,2.69
2018-12-18T15:09:54.213Z,2.70
2018-12-18T15:12:24.974Z,2.73
2018-12-18T15:14:55.817Z,2.62
2018-12-18T15:17:26.576Z,2.69
2018-12-18T15:19:57.297Z,2.71
2018-12-18T15:22:28.081Z,2.72
2018-12-18T15:24:58.800Z,2.74
2018-12-18T15:27:29.592Z,2.77
2018-12-18T15:30:00.442Z,2.78
2018-12-18T15:32:31.311Z,2.68
2018-12-18T15:35:02.355Z,2.80
2018-12-18T15:37:33.127Z,2.75
2018-12-18T15:40:04.145Z,2.79
2018-12-18T15:42:34.881Z,2.77
2018-12-18T15:45:05.721Z,2.74
2018-12-18T15:47:36.516Z,2.82
2018-12-18T15:50:07.289Z,2.77
2018-12-18T15:52:38.040Z,2.82
2018-12-18T15:55:08.806Z,2.86
2018-12-18T15:57:39.561Z,2.83
2018-12-18T16:00:10.293Z,2.82
2018-12-18T16:02:41.045Z,2.84
2018-12-18T16:05:11.792Z,2.75
2018-12-18T16:07:42.587Z,2.74
2018-12-18T16:10:13.335Z,2.77
2018-12-18T16:12:44.205Z,2.77
2018-12-18T16:15:14.949Z,2.73
2018-12-18T16:17:45.828Z,2.76
2018-12-18T16:20:16.596Z,2.74
2018-12-18T16:22:47.392Z,2.74
2018-12-18T16:25:18.124Z,2.82
2018-12-18T16:27:55.893Z,2.77
2018-12-18T16:30:26.633Z,2.77
2018-12-18T16:32:57.368Z,2.79
2018-12-18T16:35:28.308Z,2.79
2018-12-18T16:37:59.221Z,2.77
2018-12-18T16:40:38.169Z,2.71
2018-12-18T16:43:09.082Z,2.74
2018-12-18T16:45:39.824Z,2.42
2018-12-18T16:48:10.618Z,2.75
2018-12-18T16:50:41.337Z,2.80
2018-12-18T16:53:12.210Z,2.79
2018-12-18T16:55:43.172Z,2.75
2018-12-18T16:58:13.952Z,2.69
2018-12-18T17:00:44.692Z,2.62
2018-12-18T17:03:15.648Z,2.73
2018-12-18T17:05:46.432Z,2.67
2018-12-18T17:08:17.217Z,2.58
2018-12-18T17:10:48.108Z,2.53
2018-12-18T17:13:18.925Z,2.54
2018-12-18T17:15:49.654Z,2.57
2018-12-18T17:18:20.454Z,2.50
2018-12-18T17:20:58.120Z,2.55
2018-12-18T17:23:28.867Z,2.41
2018-12-18T17:25:59.603Z,2.36
2018-12-18T17:28:30.366Z,2.40
2018-12-18T17:31:01.129Z,2.36
2018-12-18T17:33:31.923Z,2.41
2018-12-18T17:36:02.677Z,2.32
2018-12-18T17:38:33.793Z,2.21
2018-12-18T17:41:04.766Z,2.36
2018-12-18T17:43:35.887Z,2.39
2018-12-18T17:46:06.641Z,2.38
2018-12-18T17:48:37.415Z,2.42
2018-12-18T17:51:08.138Z,2.32
2018-12-18T17:53:39.021Z,2.27
2018-12-18T17:56:09.761Z,2.21
2018-12-18T17:58:40.576Z,2.24
2018-12-18T18:01:11.346Z,2.16
2018-12-18T18:03:42.104Z,2.10
2018-12-18T18:06:12.837Z,2.11
2018-12-18T18:08:43.566Z,2.09
2018-12-18T18:11:14.301Z,2.02
2018-12-18T18:13:45.068Z,1.99
2018-12-18T18:16:15.893Z,2.02
2018-12-18T18:18:46.688Z,2.05
2018-12-18T18:21:17.552Z,1.93
2018-12-18T18:23:48.447Z,1.94
2018-12-18T18:26:19.314Z,2.03
2018-12-18T18:28:50.079Z,2.00
2018-12-18T18:31:20.788Z,1.94
2018-12-18T18:33:51.598Z,1.95
2018-12-18T18:36:22.346Z,1.97
2018-12-18T18:38:53.156Z,1.96
2018-12-18T18:41:23.905Z,1.95
2018-12-18T18:43:54.873Z,1.96
2018-12-18T18:46:25.642Z,1.99
2018-12-18T18:48:56.433Z,1.94
2018-12-18T18:51:27.172Z,1.87
2018-12-18T18:53:57.921Z,1.86
2018-12-18T18:56:28.763Z,1.83
2018-12-18T18:58:59.744Z,-0.36
2018-12-18T19:01:30.502Z,1.73
2018-12-18T19:04:01.588Z,1.69
2018-12-18T19:06:32.353Z,1.62
2018-12-18T19:09:05.319Z,1.60
2018-12-18T19:11:36.072Z,1.54
2018-12-18T19:14:06.936Z,1.47
2018-12-18T19:16:37.674Z,1.43
2018-12-18T19:19:08.448Z,1.45
2018-12-18T19:21:39.200Z,1.42
2018-12-18T19:24:09.946Z,1.38
2018-12-18T19:26:40.684Z,1.33
2018-12-18T19:29:11.446Z,1.32
2018-12-18T19:31:42.181Z,1.23
2018-12-18T19:34:12.929Z,1.22
2018-12-18T19:36:43.970Z,1.18
2018-12-18T19:39:14.721Z,1.19
2018-12-18T19:41:45.506Z,1.26
2018-12-18T19:44:16.254Z,1.35
2018-12-18T19:46:47.036Z,1.31
2018-12-18T19:49:17.879Z,1.25
2018-12-18T19:51:48.757Z,1.24
2018-12-18T19:54:19.503Z,1.23
2018-12-18T19:56:50.386Z,1.21
2018-12-18T19:59:21.206Z,1.18
2018-12-18T20:01:51.955Z,1.18
2018-12-18T20:04:22.704Z,1.26
2018-12-18T20:06:53.450Z,1.25
2018-12-18T20:12:28.316Z,1.20
2018-12-18T20:14:59.064Z,1.20
2018-12-18T20:17:29.805Z,1.25
2018-12-18T20:20:00.533Z,1.24
2018-12-18T20:22:31.552Z,1.33
2018-12-18T20:25:03.600Z,1.27
2018-12-18T20:27:34.338Z,1.27
2018-12-18T20:30:05.520Z,1.26
2018-12-18T20:32:36.274Z,1.28
2018-12-18T20:35:07.138Z,1.29
2018-12-18T20:37:37.936Z,1.35
2018-12-18T20:40:08.849Z,1.33
2018-12-18T20:42:39.584Z,1.31
2018-12-18T20:45:10.328Z,1.37
2018-12-18T20:47:41.054Z,1.21
2018-12-18T20:50:11.892Z,1.37
2018-12-18T20:52:42.622Z,1.30
2018-12-18T20:55:13.355Z,1.36
2018-12-18T20:57:44.151Z,1.09
2018-12-18T21:00:15.140Z,1.29
2018-12-18T21:02:45.882Z,1.23
2018-12-18T21:05:16.825Z,1.20
2018-12-18T21:07:47.655Z,1.27
2018-12-18T21:10:18.517Z,1.23
2018-12-18T21:12:49.313Z,1.29
2018-12-18T21:15:20.122Z,1.24
2018-12-18T21:17:50.981Z,1.13
2018-12-18T21:20:21.782Z,1.12
2018-12-18T21:22:52.588Z,1.16
2018-12-18T21:25:23.559Z,1.17
2018-12-18T21:27:54.371Z,1.17
2018-12-18T21:33:03.109Z,1.14
2018-12-18T21:35:34.028Z,1.02
2018-12-18T21:38:04.857Z,1.06
2018-12-18T21:40:35.706Z,0.91
2018-12-18T21:43:06.493Z,1.07
2018-12-18T21:45:37.403Z,1.11
2018-12-18T21:48:08.197Z,1.17
2018-12-18T21:50:39.062Z,1.15
2018-12-18T21:53:09.862Z,1.24
2018-12-18T21:55:40.699Z,1.16
2018-12-18T21:58:11.553Z,1.14
2018-12-18T22:00:42.373Z,1.17
2018-12-18T22:03:13.169Z,1.30
2018-12-18T22:05:44.028Z,1.26
2018-12-18T22:08:14.854Z,1.26
2018-12-18T22:10:45.681Z,1.27
2018-12-18T22:13:16.485Z,1.19
2018-12-18T22:15:47.541Z,1.26
2018-12-18T22:18:18.349Z,1.26
2018-12-18T22:20:49.202Z,1.22
2018-12-18T22:23:20.005Z,1.30
2018-12-18T22:25:50.809Z,1.33
2018-12-18T22:28:21.549Z,1.27
2018-12-18T22:30:52.285Z,1.27
2018-12-18T22:33:23.021Z,1.18
2018-12-18T22:35:53.785Z,1.08
2018-12-18T22:38:24.609Z,1.04
2018-12-18T22:40:55.452Z,1.00
2018-12-18T22:43:26.284Z,0.92
2018-12-18T22:45:57.019Z,0.84
2018-12-18T22:48:27.742Z,0.66
2018-12-18T22:50:58.502Z,0.67
2018-12-18T22:53:29.331Z,0.70
2018-12-18T22:56:00.085Z,0.68
2018-12-18T22:58:30.829Z,0.61
2018-12-18T23:01:03.706Z,0.56
2018-12-18T23:03:34.556Z,0.49
2018-12-18T23:06:05.429Z,0.48
2018-12-18T23:08:36.282Z,0.39
2018-12-18T23:11:07.152Z,0.34
2018-12-18T23:16:45.635Z,0.44
2018-12-18T23:19:16.470Z,0.47
2018-12-18T23:21:47.336Z,0.38
2018-12-18T23:24:18.156Z,0.31
2018-12-18T23:26:49.048Z,0.21
2018-12-18T23:29:19.947Z,0.23
2018-12-18T23:31:50.802Z,0.22
2018-12-18T23:34:21.604Z,0.21
2018-12-18T23:36:52.504Z,0.21
2018-12-18T23:39:23.307Z,0.15
2018-12-18T23:41:54.634Z,0.16
2018-12-18T23:44:25.443Z,0.13
2018-12-18T23:46:56.368Z,0.16
2018-12-18T23:49:27.180Z,0.06
2018-12-18T23:51:57.987Z,0.09
2018-12-18T23:54:28.785Z,0.03
2018-12-18T23:56:59.627Z,0.07
2018-12-18T23:59:30.503Z,0.07
